Time;durP1;ratioP1;P1;durP2;ratioP2;P2;SDS_P1;SDS_P2;PMS_P1;PMS_P2;Temp;Humidity;BMP_temperature;BMP_pressure;BME280_temperature;BME280_humidity;BME280_pressure;Samples;Min_cycle;Max_cycle;Signal;HPM_P1;HPM_P2
2021/01/04 00:01:23;;;;;;;18.63;14.65;;;;;;;18.78;32.41;94422.41;5018175;28;20050;-51
2021/01/04 00:04:13;;;;;;;17.45;14.25;;;;;;;18.46;32.79;94421.44;5035623;28;20056;-54
2021/01/04 00:07:22;;;;;;;17.92;13.77;;;;;;;18.60;32.90;94418.47;5034517;28;20045;-53
2021/01/04 00:10:05;;;;;;;16.73;14.10;;;;;;;18.55;32.89;94426.63;5011898;28;20154;-55
2021/01/04 00:12:45;;;;;;;18.08;15.07;;;;;;;18.65;32.61;94420.91;5016254;28;20352;-54
2021/01/04 00:15:35;;;;;;;17.73;14.77;;;;;;;18.58;32.96;94425.97;5017759;28;20059;-51
2021/01/04 00:18:18;;;;;;;18.80;13.65;;;;;;;18.51;33.03;94437.13;5002303;28;20057;-54
2021/01/04 00:21:03;;;;;;;17.00;13.93;;;;;;;18.70;32.43;94447.13;5017836;28;20045;-53
2021/01/04 00:23:55;;;;;;;16.40;14.45;;;;;;;18.46;32.93;94419.56;5035071;28;20056;-51
2021/01/04 00:26:33;;;;;;;17.05;13.90;;;;;;;18.35;33.18;94410.56;5033967;28;20050;-54
2021/01/04 00:29:00;;;;;;;16.27;13.30;;;;;;;18.62;32.60;94416.25;5022278;28;20045;-53
2021/01/04 00:31:37;;;;;;;16.15;14.15;;;;;;;18.64;32.55;94411.41;5014325;28;20376;-52
2021/01/04 00:34:10;;;;;;;17.48;14.43;;;;;;;18.83;32.18;94405.50;5015279;28;20366;-54
2021/01/04 00:36:40;;;;;;;;;;;;;;;18.57;32.46;94409.31;5015587;28;20053;-51
2021/01/04 00:39:13;;;;;;;16.92;13.43;;;;;;;18.36;32.92;94404.16;5004346;28;19913;-55
2021/01/04 00:42:00;;;;;;;;;;;;;;;18.14;33.23;94409.94;5015478;28;20053;-53
2021/01/04 00:44:48;;;;;;;15.57;13.52;;;;;;;18.23;32.97;94409.81;5030545;28;19925;-53
2021/01/04 00:47:38;;;;;;;21.25;18.23;;;;;;;18.19;33.07;94399.13;5014205;28;20069;-54
2021/01/04 00:50:11;;;;;;;19.73;17.52;;;;;;;18.26;33.08;94401.22;5017498;28;20053;-55
2021/01/04 00:53:03;;;;;;;21.77;17.65;;;;;;;18.52;32.64;94395.53;5004961;28;20046;-53
2021/01/04 00:55:33;;;;;;;21.25;18.00;;;;;;;18.36;32.92;94404.16;5014275;28;20054;-54
2021/01/04 00:58:15;;;;;;;20.23;16.73;;;;;;;18.43;32.75;94391.13;5017756;28;20651;-53
2021/01/04 01:00:54;;;;;;;21.33;16.30;;;;;;;18.77;32.44;94397.03;5033637;28;20391;-55
2021/01/04 01:03:21;;;;;;;16.25;13.57;;;;;;;18.77;32.50;94394.41;5033963;28;20056;-54
2021/01/04 01:05:51;;;;;;;15.60;12.80;;;;;;;18.72;32.47;94389.31;5033751;28;20060;-51
2021/01/04 01:08:23;;;;;;;17.52;13.50;;;;;;;18.88;32.33;94392.81;5034055;28;20045;-50
2021/01/04 01:11:05;;;;;;;17.10;12.95;;;;;;;18.92;32.23;94388.38;5034397;28;20464;-54
2021/01/04 01:13:55;;;;;;;16.20;12.60;;;;;;;19.17;31.99;94388.25;5034241;28;20072;-54
2021/01/04 01:16:43;;;;;;;16.33;12.63;;;;;;;18.94;32.34;94388.78;5016333;28;20045;-53
2021/01/04 01:19:27;;;;;;;14.25;12.18;;;;;;;18.84;32.43;94381.34;5034048;28;20045;-56
2021/01/04 01:21:54;;;;;;;14.27;11.95;;;;;;;18.84;32.56;94385.88;5016701;28;20049;-53
2021/01/04 01:24:21;;;;;;;13.98;11.45;;;;;;;18.84;32.57;94373.41;5033036;28;20053;-52
2021/01/04 01:27:20;;;;;;;14.55;11.98;;;;;;;18.72;32.53;94368.13;5033048;28;20049;-55
2021/01/04 01:30:02;;;;;;;15.73;11.77;;;;;;;18.60;33.14;94378.75;5032756;28;20478;-51
2021/01/04 01:32:43;;;;;;;13.48;11.23;;;;;;;18.76;32.70;94369.78;5034083;28;20447;-53
2021/01/04 01:35:10;;;;;;;15.82;11.57;;;;;;;18.82;32.56;94372.97;5034212;28;20064;-54
2021/01/04 01:37:51;;;;;;;18.73;13.10;;;;;;;18.97;32.41;94374.88;5033952;28;20371;-52
2021/01/04 01:40:51;;;;;;;16.05;12.95;;;;;;;18.93;32.84;94376.66;5016754;28;20048;-52
2021/01/04 01:43:30;;;;;;;16.63;13.20;;;;;;;18.72;33.17;94374.19;5033830;28;20045;-54
2021/01/04 01:46:10;;;;;;;18.40;13.98;;;;;;;19.05;32.64;94368.66;5030460;28;20060;-53
2021/01/04 01:49:05;;;;;;;20.48;15.68;;;;;;;18.93;33.09;94368.72;4999841;28;20053;-54
2021/01/04 01:51:59;;;;;;;23.80;17.33;;;;;;;19.23;32.40;94386.88;5033891;28;20376;-55
2021/01/04 01:54:59;;;;;;;20.70;14.45;;;;;;;19.17;32.55;94377.66;5016563;28;20041;-55
2021/01/04 01:58:00;;;;;;;18.17;13.05;;;;;;;19.21;32.63;94389.09;5033790;28;20372;-55
2021/01/04 02:00:42;;;;;;;15.00;11.63;;;;;;;19.16;32.69;94398.09;5033979;28;20117;-55
2021/01/04 02:03:30;;;;;;;14.23;10.70;;;;;;;19.31;32.63;94393.94;5033736;28;20053;-54
2021/01/04 02:06:16;;;;;;;14.80;10.90;;;;;;;19.53;32.55;94401.34;5017678;28;20393;-54
2021/01/04 02:08:57;;;;;;;13.50;11.40;;;;;;;19.25;32.61;94405.88;5020828;28;20046;-55
2021/01/04 02:11:47;;;;;;;12.95;11.00;;;;;;;19.46;32.18;94385.22;5033630;28;20076;-54
2021/01/04 02:14:35;;;;;;;11.48;9.57;;;;;;;19.27;32.41;94387.78;5036330;28;20078;-52
2021/01/04 02:17:33;;;;;;;10.80;8.38;;;;;;;19.58;32.00;94371.91;5019771;28;20049;-49
2021/01/04 02:20:32;;;;;;;10.77;8.32;;;;;;;19.27;33.27;94371.88;5035388;28;20045;-53
2021/01/04 02:23:07;;;;;;;12.27;9.18;;;;;;;19.06;33.37;94367.56;5017722;28;20326;-53
2021/01/04 02:25:39;;;;;;;12.15;8.65;;;;;;;19.14;33.41;94362.44;5017797;28;20126;-54
2021/01/04 02:28:10;;;;;;;8.95;7.47;;;;;;;19.21;33.34;94365.25;5032842;28;20057;-55
2021/01/04 02:30:37;;;;;;;11.32;8.50;;;;;;;19.32;33.42;94358.38;5016835;28;20054;-53
2021/01/04 02:33:06;;;;;;;10.25;7.80;;;;;;;19.35;33.07;94360.34;5017734;28;20053;-54
2021/01/04 02:35:37;;;;;;;10.82;7.45;;;;;;;19.07;33.52;94347.91;5017581;28;20495;-53
2021/01/04 02:38:04;;;;;;;10.10;8.52;;;;;;;19.04;33.85;94337.22;5016258;28;20057;-52
2021/01/04 02:40:31;;;;;;;8.38;6.88;;;;;;;19.14;33.79;94335.94;5017643;28;20050;-52
2021/01/04 02:42:58;;;;;;;9.13;7.45;;;;;;;19.08;33.67;94344.16;5017427;28;20042;-55
2021/01/04 02:45:28;;;;;;;11.77;8.90;;;;;;;19.26;33.51;94331.34;5017421;28;20057;-54
2021/01/04 02:48:01;;;;;;;11.85;9.02;;;;;;;19.23;33.33;94336.53;5019341;28;20375;-55
2021/01/04 02:50:44;;;;;;;10.77;8.80;;;;;;;19.25;33.56;94339.63;5017397;28;20058;-52
2021/01/04 02:53:36;;;;;;;16.42;11.60;;;;;;;19.32;33.35;94332.63;5000090;28;20050;-54
2021/01/04 02:56:05;;;;;;;16.98;12.55;;;;;;;19.61;32.71;94338.63;5017012;28;20049;-56
2021/01/04 02:58:41;;;;;;;18.95;14.32;;;;;;;19.17;33.43;94345.84;4999556;28;20045;-53
2021/01/04 03:01:13;;;;;;;14.70;11.50;;;;;;;19.45;33.42;94351.84;5017310;28;20475;-51
2021/01/04 03:03:42;;;;;;;14.93;10.63;;;;;;;19.34;33.23;94353.50;5000033;28;20057;-53
2021/01/04 03:06:14;;;;;;;13.02;10.27;;;;;;;19.26;33.76;94359.72;4999681;28;20495;-55
2021/01/04 03:08:41;;;;;;;11.63;8.82;;;;;;;19.39;33.42;94355.88;4999394;28;20755;-58
2021/01/04 03:11:13;;;;;;;11.88;8.48;;;;;;;19.29;33.91;94340.50;5016901;28;20049;-57
2021/01/04 03:14:04;;;;;;;16.13;11.73;;;;;;;19.29;33.84;94341.25;4999545;28;20048;-53
2021/01/04 03:17:01;;;;;;;15.52;11.65;;;;;;;19.16;34.10;94344.31;4971343;28;20096;-53
2021/01/04 03:19:30;;;;;;;16.70;11.82;;;;;;;19.27;34.02;94340.06;5025348;28;20445;-55
2021/01/04 03:22:05;;;;;;;15.68;10.65;;;;;;;19.09;34.18;94343.03;5015538;28;20053;-53
2021/01/04 03:24:32;;;;;;;12.40;8.48;;;;;;;19.24;33.90;94343.38;5031954;28;20448;-54
2021/01/04 03:27:23;;;;;;;11.50;9.82;;;;;;;19.11;34.30;94324.16;5016584;28;20450;-58
2021/01/04 03:29:50;;;;;;;12.32;9.55;;;;;;;19.06;34.50;94324.41;5016241;28;20384;-52
2021/01/04 03:32:17;;;;;;;10.90;9.40;;;;;;;18.90;34.62;94300.53;5016592;28;20045;-56
2021/01/04 03:34:44;;;;;;;9.38;6.47;;;;;;;19.33;33.94;94289.09;5016473;28;20059;-55
2021/01/04 03:37:11;;;;;;;9.13;6.32;;;;;;;19.20;34.08;94287.66;5015385;28;20061;-53
2021/01/04 03:39:41;;;;;;;8.68;6.43;;;;;;;19.05;34.31;94275.94;5016226;28;20457;-53
2021/01/04 03:42:09;;;;;;;8.38;6.90;;;;;;;19.05;34.39;94275.94;5016304;28;20056;-53
2021/01/04 03:44:36;;;;;;;11.60;8.38;;;;;;;19.38;33.55;94286.19;5016440;28;20065;-50
2021/01/04 03:47:03;;;;;;;8.80;7.88;;;;;;;19.14;34.00;94288.25;5015808;28;20798;-59
2021/01/04 03:49:30;;;;;;;10.13;8.45;;;;;;;19.36;33.50;94290.31;5015762;28;20061;-53
2021/01/04 03:51:59;;;;;;;10.85;8.27;;;;;;;19.07;33.86;94289.63;5015980;28;20053;-55
2021/01/04 03:54:26;;;;;;;8.57;7.50;;;;;;;19.84;32.87;94289.16;5016164;28;20050;-56
2021/01/04 03:56:54;;;;;;;11.65;9.13;;;;;;;20.12;31.88;94283.69;5022861;28;20049;-54
2021/01/04 03:59:22;;;;;;;12.55;9.93;;;;;;;19.42;33.15;94294.22;5036100;28;20051;-51
2021/01/04 04:01:54;;;;;;;12.80;9.35;;;;;;;19.33;33.50;94272.44;5036035;28;20057;-53
2021/01/04 04:04:22;;;;;;;15.20;11.43;;;;;;;19.42;33.14;94267.72;5023005;28;20053;-54
2021/01/04 04:06:50;;;;;;;13.43;11.43;;;;;;;19.33;33.38;94272.44;5022389;28;20053;-53
2021/01/04 04:09:19;;;;;;;18.02;12.30;;;;;;;19.23;33.61;94273.72;5035709;28;20053;-55
2021/01/04 04:11:46;;;;;;;15.38;12.00;;;;;;;19.05;33.68;94270.66;5035350;28;20045;-54
2021/01/04 04:14:15;;;;;;;14.20;11.43;;;;;;;19.09;33.71;94255.59;5034947;28;20045;-52
2021/01/04 04:16:42;;;;;;;14.55;11.35;;;;;;;18.83;34.36;94257.97;5034659;28;20053;-55
2021/01/04 04:19:10;;;;;;;15.10;11.40;;;;;;;19.04;33.95;94229.38;5035442;28;20388;-53
2021/01/04 04:21:37;;;;;;;13.50;10.43;;;;;;;18.99;34.07;94234.13;5023901;28;20372;-55
2021/01/04 04:24:05;;;;;;;13.65;10.68;;;;;;;19.18;33.66;94231.56;5015569;28;20041;-54
2021/01/04 04:26:32;;;;;;;12.38;10.23;;;;;;;18.93;34.19;94246.88;5019056;28;20080;-54
2021/01/04 04:28:59;;;;;;;14.13;10.60;;;;;;;19.38;33.56;94249.09;5030354;28;20078;-54
2021/01/04 04:31:26;;;;;;;12.77;10.40;;;;;;;19.25;33.67;94252.16;5015395;28;20048;-53
2021/01/04 04:33:55;;;;;;;13.65;10.32;;;;;;;19.09;33.88;94245.00;5015240;28;20049;-53
2021/01/04 04:36:25;;;;;;;12.18;10.18;;;;;;;19.29;33.74;94242.44;5016333;28;20053;-54
2021/01/04 04:38:53;;;;;;;12.13;9.55;;;;;;;19.14;33.88;94245.84;5035038;28;20375;-53
2021/01/04 04:41:49;;;;;;;12.07;10.23;;;;;;;19.06;34.04;94250.22;5034937;28;20056;-56
2021/01/04 04:44:30;;;;;;;13.23;10.25;;;;;;;18.92;34.46;94245.34;5024205;28;20041;-55
2021/01/04 04:47:12;;;;;;;15.15;10.98;;;;;;;19.24;33.92;94234.72;5009510;28;20061;-52
2021/01/04 04:49:58;;;;;;;16.55;10.20;;;;;;;19.17;34.11;94234.56;5027596;28;20133;-57
2021/01/04 04:52:33;;;;;;;13.27;10.43;;;;;;;19.21;33.96;94230.13;5034225;28;20057;-54
2021/01/04 04:55:27;;;;;;;13.52;10.68;;;;;;;18.96;34.38;94229.53;5034303;28;20056;-53
2021/01/04 04:58:09;;;;;;;13.50;10.90;;;;;;;19.04;34.26;94233.91;5019813;28;20065;-54
2021/01/04 05:00:45;;;;;;;12.00;9.88;;;;;;;24.33;25.61;94226.59;5026158;28;20467;-54
2021/01/04 05:03:48;;;;;;;10.75;9.20;;;;;;;26.11;23.09;94226.69;5026307;28;20049;-53
2021/01/04 05:06:50;;;;;;;11.23;9.20;;;;;;;26.95;22.15;94227.44;5009165;28;20054;-54
2021/01/04 05:09:20;;;;;;;10.48;9.38;;;;;;;27.27;21.29;94237.94;4970595;28;20054;-53
2021/01/04 05:12:05;;;;;;;11.98;10.60;;;;;;;27.77;20.64;94229.50;5021056;28;20053;-58
2021/01/04 05:14:36;;;;;;;11.63;10.35;;;;;;;25.12;23.69;94222.19;5032453;28;20368;-51
2021/01/04 05:17:41;;;;;;;12.40;11.20;;;;;;;22.04;28.62;94228.47;5009548;28;20054;-48
2021/01/04 05:20:45;;;;;;;16.05;12.23;;;;;;;20.86;30.98;94227.84;5026425;28;20037;-50
2021/01/04 05:23:51;;;;;;;15.55;13.88;;;;;;;20.80;31.09;94213.28;5033867;28;20049;-49
2021/01/04 05:26:27;;;;;;;16.35;13.55;;;;;;;20.96;30.74;94202.56;5033944;28;20049;-50
2021/01/04 05:29:13;;;;;;;14.82;13.23;;;;;;;20.67;31.50;94194.09;5032750;28;20049;-53
2021/01/04 05:32:01;;;;;;;15.75;14.00;;;;;;;20.68;31.46;94190.34;5014193;28;20053;-52
2021/01/04 05:34:35;;;;;;;15.93;14.20;;;;;;;20.71;31.37;94189.63;5014335;28;20046;-53
2021/01/04 05:37:24;;;;;;;18.13;15.23;;;;;;;20.91;31.21;94171.75;5019625;28;20368;-55
2021/01/04 05:39:58;;;;;;;18.13;14.70;;;;;;;20.88;31.25;94175.88;5014849;28;20050;-55
2021/01/04 05:42:31;;;;;;;18.63;14.95;;;;;;;20.99;30.91;94175.25;5013280;28;20519;-52
2021/01/04 05:45:09;;;;;;;16.38;14.50;;;;;;;21.27;30.53;94170.41;5014160;28;20041;-52
2021/01/04 05:48:02;;;;;;;17.50;14.80;;;;;;;21.42;30.16;94168.72;5001709;28;20061;-54
2021/01/04 05:50:57;;;;;;;18.17;15.52;;;;;;;21.45;30.21;94166.13;4996904;28;20053;-53
2021/01/04 05:53:24;;;;;;;20.23;16.25;;;;;;;21.11;30.66;94141.31;5014174;28;20330;-49
2021/01/04 05:56:00;;;;;;;21.40;17.58;;;;;;;21.12;30.96;94163.34;5009143;28;20339;-53
2021/01/04 05:58:31;;;;;;;26.23;20.63;;;;;;;21.33;30.43;94168.97;5010957;28;20049;-54
2021/01/04 06:01:20;;;;;;;27.10;21.23;;;;;;;21.31;30.94;94165.91;5014179;28;20079;-52
2021/01/04 06:04:02;;;;;;;28.40;21.35;;;;;;;21.24;30.92;94171.13;5013868;28;20445;-54
2021/01/04 06:07:02;;;;;;;24.27;20.23;;;;;;;21.28;30.99;94171.94;5013698;28;20054;-52
2021/01/04 06:09:30;;;;;;;26.42;22.17;;;;;;;21.14;31.19;94177.03;5012867;28;20057;-51
2021/01/04 06:12:03;;;;;;;26.15;22.33;;;;;;;21.18;31.00;94173.28;5013848;28;20050;-52
2021/01/04 06:14:36;;;;;;;35.22;27.58;;;;;;;20.97;31.14;94161.56;5012960;28;20037;-54
2021/01/04 06:17:10;;;;;;;36.60;28.15;;;;;;;21.12;30.98;94166.00;5013167;28;20069;-56
2021/01/04 06:19:40;;;;;;;37.72;29.77;;;;;;;20.99;31.16;94175.25;5012775;28;20057;-52
2021/01/04 06:22:09;;;;;;;37.63;28.90;;;;;;;21.16;30.51;94169.47;5012898;28;20056;-53
2021/01/04 06:24:38;;;;;;;36.55;28.55;;;;;;;21.06;30.89;94157.53;5013882;28;20045;-57
2021/01/04 06:27:18;;;;;;;34.38;28.63;;;;;;;21.07;30.92;94145.78;5013563;28;20057;-50
2021/01/04 06:29:48;;;;;;;37.95;28.63;;;;;;;21.09;31.06;94148.09;4996337;28;20057;-52
2021/01/04 06:32:29;;;;;;;34.67;27.00;;;;;;;20.92;31.26;94147.47;4994052;28;20046;-53
2021/01/04 06:35:05;;;;;;;32.92;27.77;;;;;;;21.44;30.30;94143.31;4994000;28;20434;-54
2021/01/04 06:37:33;;;;;;;36.67;28.58;;;;;;;21.40;30.72;94144.38;5001817;28;20087;-54
2021/01/04 06:40:09;;;;;;;33.15;27.55;;;;;;;21.45;30.88;94139.53;5013699;28;20381;-53
2021/01/04 06:42:41;;;;;;;31.20;25.55;;;;;;;21.26;30.82;94139.63;5013687;28;20060;-54
2021/01/04 06:45:16;;;;;;;26.92;23.73;;;;;;;21.37;30.97;94132.59;5013495;28;20057;-56
2021/01/04 06:47:51;;;;;;;27.35;23.80;;;;;;;21.59;30.56;94136.28;5002481;28;20377;-55
2021/01/04 06:50:42;;;;;;;25.88;23.08;;;;;;;21.44;30.79;94132.66;4996394;28;20050;-53
2021/01/04 06:53:09;;;;;;;24.85;21.58;;;;;;;21.62;30.64;94129.47;5013414;28;20046;-56
2021/01/04 06:55:55;;;;;;;19.58;15.80;;;;;;;21.72;30.65;94132.25;5013552;28;20050;-50
2021/01/04 06:59:09;;;;;;;16.83;14.30;;;;;;;21.78;30.34;94124.72;5013312;28;20054;-52
2021/01/04 07:01:55;;;;;;;16.73;14.68;;;;;;;21.95;29.88;94124.16;4945725;29;20055;-53
2021/01/04 07:04:28;;;;;;;18.63;16.63;;;;;;;22.42;29.43;94125.44;4951667;29;20039;-55
2021/01/04 07:06:58;;;;;;;;;;;;;;;22.27;29.37;94123.78;4996946;28;20076;-54
2021/01/04 07:09:50;;;;;;;15.77;13.85;;;;;;;21.97;30.57;94132.56;5016824;28;19917;-53
2021/01/04 07:12:38;;;;;;;15.57;13.75;;;;;;;21.89;30.36;94127.53;5020696;28;20057;-53
2021/01/04 07:15:31;;;;;;;15.75;12.85;;;;;;;21.76;30.61;94124.31;5036593;28;20079;-53
2021/01/04 07:18:04;;;;;;;12.73;11.40;;;;;;;22.10;29.76;94120.53;5036085;28;20060;-53
2021/01/04 07:20:36;;;;;;;11.32;10.13;;;;;;;22.18;29.89;94107.34;5019142;28;20052;-52
2021/01/04 07:23:40;;;;;;;13.95;10.60;;;;;;;22.14;29.97;94105.41;5008886;28;20057;-51
2021/01/04 07:26:20;;;;;;;11.77;9.30;;;;;;;22.12;30.10;94101.56;5016551;28;20445;-52
2021/01/04 07:28:55;;;;;;;9.88;8.73;;;;;;;22.04;30.18;94087.41;5016579;28;20054;-53
2021/01/04 07:31:33;;;;;;;11.25;9.50;;;;;;;22.08;30.17;94085.53;5016609;28;20057;-53
2021/01/04 07:34:24;;;;;;;10.27;9.27;;;;;;;22.18;30.25;94083.38;5032679;28;20052;-54
2021/01/04 07:37:20;;;;;;;11.68;9.93;;;;;;;22.29;29.89;94086.88;5018714;28;20345;-53
2021/01/04 07:39:58;;;;;;;13.13;10.95;;;;;;;22.19;30.13;94083.00;5035847;28;20131;-56
2021/01/04 07:42:26;;;;;;;11.98;10.05;;;;;;;22.23;30.23;94080.38;5018571;28;20129;-51
2021/01/04 07:45:18;;;;;;;10.27;8.68;;;;;;;22.81;29.10;94063.72;5024748;28;20050;-52
2021/01/04 07:48:22;;;;;;;9.43;7.18;;;;;;;22.74;28.86;94062.53;5032715;28;20357;-52
2021/01/04 07:51:20;;;;;;;9.05;7.53;;;;;;;22.91;28.77;94052.41;5036137;28;20433;-52
2021/01/04 07:54:06;;;;;;;10.50;8.38;;;;;;;22.80;28.75;94056.84;5020829;28;20054;-55
2021/01/04 07:57:10;;;;;;;11.77;9.45;;;;;;;22.91;28.54;94047.09;5015921;28;20416;-52
2021/01/04 07:59:40;;;;;;;9.75;7.88;;;;;;;22.70;28.98;94045.75;5015992;28;20442;-52
2021/01/04 08:02:38;;;;;;;12.65;8.02;;;;;;;23.01;28.30;94033.03;5015860;28;20061;-51
2021/01/04 08:05:13;;;;;;;7.90;6.47;;;;;;;23.13;28.15;94023.94;5015812;28;20053;-51
2021/01/04 08:07:56;;;;;;;9.38;6.85;;;;;;;23.41;27.60;94020.66;5015992;28;20050;-51
2021/01/04 08:10:44;;;;;;;10.65;6.30;;;;;;;23.61;27.45;94005.88;5015394;28;20045;-52
2021/01/04 08:13:37;;;;;;;10.70;8.27;;;;;;;23.29;28.12;94011.09;5025411;28;20045;-52
2021/01/04 08:16:07;;;;;;;;;;;;;;;22.98;28.30;94020.47;5034959;28;20443;-51
2021/01/04 08:18:35;;;;;;;8.70;6.28;;;;;;;23.63;27.35;94014.28;5018126;28;20247;-53
2021/01/04 08:21:40;;;;;;;9.35;6.22;;;;;;;23.51;27.88;94012.69;5050848;28;20367;-53
2021/01/04 08:24:18;;;;;;;8.57;5.97;;;;;;;23.80;27.21;93994.88;5035088;28;20057;-53
2021/01/04 08:27:04;;;;;;;6.50;5.10;;;;;;;23.49;27.52;94003.53;5017867;28;20045;-53
2021/01/04 08:29:59;;;;;;;6.72;5.70;;;;;;;23.36;27.76;93993.19;5035211;28;20050;-53
2021/01/04 08:32:45;;;;;;;8.70;6.45;;;;;;;23.48;27.43;93986.00;5034951;28;20045;-51
2021/01/04 08:35:27;;;;;;;7.32;4.75;;;;;;;23.92;26.87;93989.19;5035141;28;20064;-55
2021/01/04 08:38:00;;;;;;;6.38;4.00;;;;;;;23.77;27.01;93987.63;5026910;28;20428;-52
2021/01/04 08:40:32;;;;;;;5.28;4.18;;;;;;;23.97;26.99;93974.72;5014660;28;20053;-51
2021/01/04 08:43:06;;;;;;;6.32;4.53;;;;;;;24.38;26.05;93972.44;5014227;28;20052;-53
2021/01/04 08:45:45;;;;;;;5.60;3.95;;;;;;;24.63;25.81;93959.06;5015039;28;20046;-52
2021/01/04 08:48:19;;;;;;;5.57;3.38;;;;;;;24.35;25.71;93956.44;5015274;28;20058;-52
2021/01/04 08:51:00;;;;;;;7.88;4.38;;;;;;;23.90;26.64;93953.34;5015154;28;20049;-53
2021/01/04 08:53:27;;;;;;;5.93;4.07;;;;;;;24.53;25.87;93939.25;5015012;28;20057;-52
2021/01/04 08:56:05;;;;;;;5.68;3.88;;;;;;;24.39;25.98;93947.25;5014807;28;20053;-55
2021/01/04 08:58:40;;;;;;;5.30;3.95;;;;;;;24.21;26.04;93949.16;5016244;28;20060;-54
2021/01/04 09:01:39;;;;;;;6.45;3.80;;;;;;;24.59;25.70;93940.38;5017318;28;20060;-53
2021/01/04 09:04:10;;;;;;;4.88;3.65;;;;;;;25.37;24.39;93943.94;4997937;28;20041;-55
2021/01/04 09:06:52;;;;;;;6.13;4.00;;;;;;;24.58;25.47;93938.84;5014826;28;20072;-51
2021/01/04 09:09:31;;;;;;;5.45;3.42;;;;;;;24.08;26.35;93937.34;5015904;28;20056;-55
2021/01/04 09:12:01;;;;;;;4.22;3.10;;;;;;;24.19;25.87;93957.53;5013678;28;20076;-51
2021/01/04 09:14:48;;;;;;;6.63;4.30;;;;;;;24.65;25.39;93943.41;5013739;28;20050;-53
2021/01/04 09:17:35;;;;;;;6.55;4.22;;;;;;;24.37;25.99;93954.13;5026786;28;20049;-51
2021/01/04 09:20:06;;;;;;;8.88;4.80;;;;;;;24.17;26.21;93945.72;5033217;28;20057;-55
2021/01/04 09:22:33;;;;;;;6.60;5.28;;;;;;;24.94;25.04;93943.31;5034009;28;20042;-53
2021/01/04 09:25:00;;;;;;;5.57;4.18;;;;;;;25.18;24.57;93950.53;5034156;28;20053;-56
2021/01/04 09:27:31;;;;;;;6.30;4.05;;;;;;;25.16;24.81;93934.09;5016577;28;20050;-53
2021/01/04 09:30:04;;;;;;;5.72;4.13;;;;;;;24.39;26.31;93931.22;5009107;28;20057;-55
2021/01/04 09:32:37;;;;;;;6.97;4.35;;;;;;;25.09;24.94;93940.25;5034236;28;20724;-54
2021/01/04 09:35:07;;;;;;;5.65;4.45;;;;;;;24.97;25.02;93934.53;5033964;28;20376;-54
2021/01/04 09:37:36;;;;;;;5.45;4.38;;;;;;;25.13;24.85;93935.66;5034169;28;20050;-57
2021/01/04 09:40:09;;;;;;;6.68;4.38;;;;;;;25.34;24.36;93936.72;5016249;28;20053;-53
2021/01/04 09:42:37;;;;;;;7.38;4.45;;;;;;;24.86;25.22;93931.91;5016675;28;20042;-55
2021/01/04 09:45:10;;;;;;;5.90;4.03;;;;;;;24.69;25.41;93927.34;5016522;28;20045;-54
2021/01/04 09:47:47;;;;;;;5.90;4.28;;;;;;;24.35;25.88;93933.16;5016920;28;20065;-53
2021/01/04 09:50:22;;;;;;;6.55;4.50;;;;;;;24.31;26.28;93934.31;5002444;28;20441;-53
2021/01/04 09:53:11;;;;;;;6.55;4.25;;;;;;;24.16;26.17;93928.16;5003303;28;20053;-53
2021/01/04 09:55:43;;;;;;;4.97;4.10;;;;;;;24.22;26.20;93926.66;5033231;28;20061;-58
2021/01/04 09:58:10;;;;;;;5.78;4.60;;;;;;;24.35;25.92;93924.38;5016534;28;20045;-53
2021/01/04 10:00:39;;;;;;;6.07;5.13;;;;;;;24.56;25.84;93925.09;5033906;28;20364;-50
2021/01/04 10:03:15;;;;;;;6.68;4.97;;;;;;;24.36;26.15;93926.66;5033845;28;20076;-53
2021/01/04 10:05:44;;;;;;;11.18;5.40;;;;;;;24.42;25.93;93914.44;5033679;28;20041;-52
2021/01/04 10:08:18;;;;;;;10.38;5.68;;;;;;;24.28;26.35;93919.81;5033724;28;20045;-53
2021/01/04 10:11:03;;;;;;;9.45;6.57;;;;;;;24.45;26.10;93912.91;5033839;28;20053;-56
2021/01/04 10:13:33;;;;;;;8.02;5.38;;;;;;;24.30;26.43;93906.84;5028999;28;20045;-53
2021/01/04 10:16:03;;;;;;;6.68;4.72;;;;;;;24.23;26.54;93917.50;5032959;28;20049;-53
2021/01/04 10:18:37;;;;;;;9.38;4.65;;;;;;;25.20;24.99;93902.75;5016352;28;20456;-57
2021/01/04 10:21:05;;;;;;;6.53;4.07;;;;;;;24.44;25.69;93888.09;5016393;28;20503;-52
2021/01/04 10:23:40;;;;;;;5.90;4.55;;;;;;;25.17;24.70;93882.91;5016286;28;20050;-53
2021/01/04 10:26:09;;;;;;;5.65;4.25;;;;;;;25.16;24.67;93878.69;5015998;28;20057;-56
2021/01/04 10:28:38;;;;;;;6.15;4.63;;;;;;;24.54;26.05;93871.28;5016161;28;20045;-53
2021/01/04 10:31:06;;;;;;;5.22;4.28;;;;;;;24.26;26.58;93874.00;5016292;28;20080;-58
2021/01/04 10:33:38;;;;;;;11.18;5.50;;;;;;;23.00;28.34;93872.34;5024673;28;20477;-52
2021/01/04 10:36:09;;;;;;;;;;;;;;;23.06;28.63;93864.75;5022638;28;20076;-47
2021/01/04 10:38:39;;;;;;;6.38;5.22;;;;;;;23.01;29.07;93863.22;5029333;28;19917;-50
2021/01/04 10:41:15;;;;;;;6.47;5.40;;;;;;;22.98;30.08;93855.97;5017914;28;20054;-53
2021/01/04 10:43:43;;;;;;;12.40;9.02;;;;;;;22.93;29.99;93855.59;5017510;28;20046;-59
2021/01/04 10:46:27;;;;;;;13.07;8.82;;;;;;;22.90;29.88;93846.44;5017621;28;20371;-56
2021/01/04 10:49:09;;;;;;;10.40;7.40;;;;;;;22.62;30.53;93841.72;5016201;28;20467;-51
2021/01/04 10:51:40;;;;;;;10.80;8.02;;;;;;;22.47;29.96;93840.13;5017643;28;20388;-52
2021/01/04 10:54:18;;;;;;;10.15;7.55;;;;;;;22.62;29.26;93835.63;5017386;28;20061;-51
2021/01/04 10:56:59;;;;;;;9.18;7.15;;;;;;;22.78;29.54;93844.06;5016909;28;20046;-51
2021/01/04 10:59:33;;;;;;;10.52;7.65;;;;;;;22.43;30.90;93826.81;5017347;28;20493;-50
2021/01/04 11:02:01;;;;;;;10.90;6.63;;;;;;;22.50;29.72;93826.06;5017120;28;20053;-52
2021/01/04 11:04:28;;;;;;;8.38;7.15;;;;;;;22.97;29.54;93821.69;5016924;28;20046;-54
2021/01/04 11:07:13;;;;;;;10.27;8.65;;;;;;;22.82;29.62;93814.78;5019313;28;20060;-49
2021/01/04 11:09:42;;;;;;;9.57;7.53;;;;;;;22.71;29.58;93802.19;5036797;28;20050;-52
2021/01/04 11:12:21;;;;;;;9.73;7.40;;;;;;;23.11;29.41;93803.06;5031550;28;20352;-50
2021/01/04 11:14:57;;;;;;;12.55;9.65;;;;;;;23.36;28.72;93803.84;5035074;28;20041;-53
2021/01/04 11:17:28;;;;;;;11.50;8.73;;;;;;;24.29;27.38;93798.47;5034923;28;20057;-50
2021/01/04 11:20:07;;;;;;;11.77;10.13;;;;;;;24.69;27.02;93796.41;5027780;28;20049;-53
2021/01/04 11:22:35;;;;;;;9.55;8.27;;;;;;;24.79;25.96;93787.59;5034344;28;20045;-54
2021/01/04 11:25:04;;;;;;;10.20;8.20;;;;;;;25.03;26.02;93781.38;5035984;28;20042;-52
2021/01/04 11:27:31;;;;;;;9.20;7.00;;;;;;;24.50;26.57;93777.03;5023851;28;20049;-50
2021/01/04 11:29:58;;;;;;;9.27;7.03;;;;;;;24.97;26.23;93780.22;5016730;28;20457;-54
2021/01/04 11:32:26;;;;;;;7.70;5.80;;;;;;;25.31;25.30;93766.28;5016790;28;20061;-53
2021/01/04 11:34:55;;;;;;;7.93;6.10;;;;;;;25.51;24.86;93762.69;5016497;28;20042;-50
2021/01/04 11:37:23;;;;;;;6.40;5.50;;;;;;;24.31;27.07;93758.78;5027033;28;20053;-52
2021/01/04 11:39:51;;;;;;;7.55;6.15;;;;;;;24.46;26.83;93744.25;5036038;28;20052;-52
2021/01/04 11:42:18;;;;;;;7.15;6.15;;;;;;;23.48;28.37;93737.94;5020735;28;20068;-54
2021/01/04 11:44:46;;;;;;;6.93;5.78;;;;;;;22.99;28.66;93731.47;5015844;28;20052;-54
2021/01/04 11:47:13;;;;;;;9.25;6.00;;;;;;;22.78;29.18;93719.59;5020997;28;20060;-57
2021/01/04 11:49:41;;;;;;;8.63;6.32;;;;;;;22.75;29.54;93703.63;5024132;28;20056;-52
2021/01/04 11:52:08;;;;;;;8.55;6.55;;;;;;;22.87;29.97;93691.84;5036014;28;20057;-54
2021/01/04 11:54:35;;;;;;;142.40;115.28;;;;;;;22.57;30.42;93674.28;5036083;28;20048;-58
2021/01/04 11:57:02;;;;;;;10.32;7.32;;;;;;;22.41;30.58;93657.91;5018895;28;20057;-52
2021/01/04 11:59:32;;;;;;;7.15;5.43;;;;;;;22.41;30.41;93661.31;5016285;28;20365;-52
2021/01/04 12:01:59;;;;;;;8.20;5.68;;;;;;;22.51;30.06;93654.47;5019130;28;20065;-51
2021/01/04 12:04:27;;;;;;;11.02;6.35;;;;;;;22.98;29.49;93661.41;5015861;28;20058;-54
2021/01/04 12:06:54;;;;;;;6.78;5.47;;;;;;;22.82;29.47;93670.91;5016105;28;20053;-55
2021/01/04 12:09:21;;;;;;;7.13;5.20;;;;;;;23.48;28.62;93671.28;5016014;28;20041;-54
2021/01/04 12:11:48;;;;;;;7.38;5.63;;;;;;;23.50;28.36;93663.63;5029239;28;20482;-54